sensor_id;sensor_type;location;lat;lon;timestamp;P1;durP1;ratioP1;P2;durP2;ratioP2
10517;SDS011;5307;42.548;22.968;2024-01-27T00:02:21;21.95;;;10.70;;
10517;SDS011;5307;42.548;22.968;2024-01-27T00:04:50;22.33;;;10.48;;
10517;SDS011;5307;42.548;22.968;2024-01-27T00:07:16;18.13;;;8.40;;
10517;SDS011;5307;42.548;22.968;2024-01-27T00:09:43;19.42;;;8.20;;
10517;SDS011;5307;42.548;22.968;2024-01-27T00:12:10;25.45;;;10.43;;
10517;SDS011;5307;42.548;22.968;2024-01-27T00:14:37;55.83;;;26.60;;
10517;SDS011;5307;42.548;22.968;2024-01-27T00:17:04;91.57;;;40.13;;
10517;SDS011;5307;42.548;22.968;2024-01-27T00:19:31;61.78;;;31.25;;
10517;SDS011;5307;42.548;22.968;2024-01-27T00:21:59;26.20;;;14.18;;
10517;SDS011;5307;42.548;22.968;2024-01-27T00:24:26;43.08;;;20.83;;
10517;SDS011;5307;42.548;22.968;2024-01-27T00:26:52;18.38;;;8.70;;
10517;SDS011;5307;42.548;22.968;2024-01-27T00:29:19;19.58;;;8.32;;
10517;SDS011;5307;42.548;22.968;2024-01-27T00:31:46;55.80;;;26.35;;
10517;SDS011;5307;42.548;22.968;2024-01-27T00:34:14;29.33;;;14.18;;
10517;SDS011;5307;42.548;22.968;2024-01-27T00:36:41;30.17;;;11.80;;
10517;SDS011;5307;42.548;22.968;2024-01-27T00:39:14;29.88;;;12.73;;
10517;SDS011;5307;42.548;22.968;2024-01-27T00:41:44;29.63;;;13.10;;
10517;SDS011;5307;42.548;22.968;2024-01-27T00:44:10;43.10;;;20.42;;
10517;SDS011;5307;42.548;22.968;2024-01-27T00:46:43;45.28;;;20.83;;
10517;SDS011;5307;42.548;22.968;2024-01-27T00:49:10;50.55;;;23.20;;
10517;SDS011;5307;42.548;22.968;2024-01-27T00:51:37;36.20;;;14.60;;
10517;SDS011;5307;42.548;22.968;2024-01-27T00:54:05;16.23;;;7.53;;
10517;SDS011;5307;42.548;22.968;2024-01-27T00:56:33;22.05;;;8.25;;
10517;SDS011;5307;42.548;22.968;2024-01-27T00:58:59;19.67;;;7.75;;
10517;SDS011;5307;42.548;22.968;2024-01-27T01:01:26;26.55;;;11.27;;
10517;SDS011;5307;42.548;22.968;2024-01-27T01:03:53;46.42;;;19.85;;
10517;SDS011;5307;42.548;22.968;2024-01-27T01:06:20;64.22;;;26.85;;
10517;SDS011;5307;42.548;22.968;2024-01-27T01:08:46;71.55;;;30.58;;
10517;SDS011;5307;42.548;22.968;2024-01-27T01:11:13;61.00;;;29.52;;
10517;SDS011;5307;42.548;22.968;2024-01-27T01:13:42;35.67;;;16.48;;
10517;SDS011;5307;42.548;22.968;2024-01-27T01:16:09;25.73;;;10.80;;
10517;SDS011;5307;42.548;22.968;2024-01-27T01:18:37;19.80;;;11.85;;
10517;SDS011;5307;42.548;22.968;2024-01-27T01:21:03;23.85;;;10.25;;
10517;SDS011;5307;42.548;22.968;2024-01-27T01:23:31;17.83;;;9.63;;
10517;SDS011;5307;42.548;22.968;2024-01-27T01:25:57;17.38;;;10.13;;
10517;SDS011;5307;42.548;22.968;2024-01-27T01:28:24;19.85;;;9.13;;
10517;SDS011;5307;42.548;22.968;2024-01-27T01:30:52;18.02;;;9.30;;
10517;SDS011;5307;42.548;22.968;2024-01-27T01:33:19;20.58;;;10.23;;
10517;SDS011;5307;42.548;22.968;2024-01-27T01:35:46;22.27;;;9.93;;
10517;SDS011;5307;42.548;22.968;2024-01-27T01:38:13;23.02;;;10.40;;
10517;SDS011;5307;42.548;22.968;2024-01-27T01:40:39;26.42;;;11.93;;
10517;SDS011;5307;42.548;22.968;2024-01-27T01:43:09;24.25;;;10.65;;
10517;SDS011;5307;42.548;22.968;2024-01-27T01:45:37;25.80;;;10.55;;
10517;SDS011;5307;42.548;22.968;2024-01-27T01:48:05;25.67;;;10.57;;
10517;SDS011;5307;42.548;22.968;2024-01-27T01:50:33;23.27;;;10.35;;
10517;SDS011;5307;42.548;22.968;2024-01-27T01:53:00;24.15;;;10.80;;
10517;SDS011;5307;42.548;22.968;2024-01-27T01:55:27;31.13;;;14.13;;
10517;SDS011;5307;42.548;22.968;2024-01-27T01:57:54;26.35;;;10.60;;
10517;SDS011;5307;42.548;22.968;2024-01-27T02:00:21;18.63;;;9.63;;
10517;SDS011;5307;42.548;22.968;2024-01-27T02:02:48;23.55;;;8.95;;
10517;SDS011;5307;42.548;22.968;2024-01-27T02:05:16;17.48;;;7.65;;
10517;SDS011;5307;42.548;22.968;2024-01-27T02:07:43;14.55;;;7.85;;
10517;SDS011;5307;42.548;22.968;2024-01-27T02:10:12;15.75;;;7.50;;
10517;SDS011;5307;42.548;22.968;2024-01-27T02:12:40;19.30;;;8.05;;
10517;SDS011;5307;42.548;22.968;2024-01-27T02:15:09;15.00;;;7.50;;
10517;SDS011;5307;42.548;22.968;2024-01-27T02:17:37;19.80;;;7.82;;
10517;SDS011;5307;42.548;22.968;2024-01-27T02:20:05;32.55;;;14.68;;
10517;SDS011;5307;42.548;22.968;2024-01-27T02:22:34;17.17;;;7.85;;
10517;SDS011;5307;42.548;22.968;2024-01-27T02:25:03;25.38;;;10.27;;
10517;SDS011;5307;42.548;22.968;2024-01-27T02:27:30;26.42;;;10.27;;
10517;SDS011;5307;42.548;22.968;2024-01-27T02:29:57;23.80;;;9.85;;
10517;SDS011;5307;42.548;22.968;2024-01-27T02:32:24;17.60;;;8.95;;
10517;SDS011;5307;42.548;22.968;2024-01-27T02:34:51;21.80;;;10.25;;
10517;SDS011;5307;42.548;22.968;2024-01-27T02:37:18;34.63;;;16.13;;
10517;SDS011;5307;42.548;22.968;2024-01-27T02:39:44;25.85;;;12.57;;
10517;SDS011;5307;42.548;22.968;2024-01-27T02:42:13;25.08;;;9.90;;
10517;SDS011;5307;42.548;22.968;2024-01-27T02:44:39;26.60;;;10.25;;
10517;SDS011;5307;42.548;22.968;2024-01-27T02:47:06;17.52;;;9.15;;
10517;SDS011;5307;42.548;22.968;2024-01-27T02:49:33;18.67;;;9.88;;
10517;SDS011;5307;42.548;22.968;2024-01-27T02:52:00;13.70;;;6.55;;
10517;SDS011;5307;42.548;22.968;2024-01-27T02:54:26;9.43;;;5.28;;
10517;SDS011;5307;42.548;22.968;2024-01-27T02:56:53;12.15;;;5.65;;
10517;SDS011;5307;42.548;22.968;2024-01-27T02:59:21;22.67;;;12.27;;
10517;SDS011;5307;42.548;22.968;2024-01-27T03:01:48;17.08;;;6.32;;
10517;SDS011;5307;42.548;22.968;2024-01-27T03:04:15;8.77;;;4.35;;
10517;SDS011;5307;42.548;22.968;2024-01-27T03:06:41;13.73;;;5.25;;
10517;SDS011;5307;42.548;22.968;2024-01-27T03:09:08;11.75;;;5.60;;
10517;SDS011;5307;42.548;22.968;2024-01-27T03:11:35;9.63;;;5.03;;
10517;SDS011;5307;42.548;22.968;2024-01-27T03:14:02;17.38;;;7.35;;
10517;SDS011;5307;42.548;22.968;2024-01-27T03:16:31;17.25;;;6.93;;
10517;SDS011;5307;42.548;22.968;2024-01-27T03:18:57;10.50;;;5.15;;
10517;SDS011;5307;42.548;22.968;2024-01-27T03:21:24;11.18;;;5.03;;
10517;SDS011;5307;42.548;22.968;2024-01-27T03:23:51;12.65;;;5.75;;
10517;SDS011;5307;42.548;22.968;2024-01-27T03:26:18;12.75;;;5.35;;
10517;SDS011;5307;42.548;22.968;2024-01-27T03:28:45;10.80;;;6.28;;
10517;SDS011;5307;42.548;22.968;2024-01-27T03:31:11;15.88;;;5.95;;
10517;SDS011;5307;42.548;22.968;2024-01-27T03:33:39;14.07;;;5.55;;
10517;SDS011;5307;42.548;22.968;2024-01-27T03:36:08;16.38;;;5.63;;
10517;SDS011;5307;42.548;22.968;2024-01-27T03:38:35;14.95;;;5.65;;
10517;SDS011;5307;42.548;22.968;2024-01-27T03:41:02;13.65;;;6.10;;
10517;SDS011;5307;42.548;22.968;2024-01-27T03:43:29;12.73;;;5.97;;
10517;SDS011;5307;42.548;22.968;2024-01-27T03:45:56;13.77;;;5.85;;
10517;SDS011;5307;42.548;22.968;2024-01-27T03:48:23;15.55;;;7.40;;
10517;SDS011;5307;42.548;22.968;2024-01-27T03:50:52;22.35;;;9.70;;
10517;SDS011;5307;42.548;22.968;2024-01-27T03:53:18;27.63;;;12.15;;
10517;SDS011;5307;42.548;22.968;2024-01-27T03:55:45;36.63;;;13.93;;
10517;SDS011;5307;42.548;22.968;2024-01-27T03:58:12;27.33;;;10.77;;
10517;SDS011;5307;42.548;22.968;2024-01-27T04:00:39;36.45;;;11.38;;
10517;SDS011;5307;42.548;22.968;2024-01-27T04:03:05;24.30;;;11.20;;
10517;SDS011;5307;42.548;22.968;2024-01-27T04:05:34;25.60;;;11.27;;
10517;SDS011;5307;42.548;22.968;2024-01-27T04:08:03;18.45;;;9.70;;
10517;SDS011;5307;42.548;22.968;2024-01-27T04:10:31;15.15;;;8.25;;
10517;SDS011;5307;42.548;22.968;2024-01-27T04:12:57;19.88;;;8.43;;
10517;SDS011;5307;42.548;22.968;2024-01-27T04:15:24;20.52;;;10.30;;
10517;SDS011;5307;42.548;22.968;2024-01-27T04:17:51;25.48;;;11.85;;
10517;SDS011;5307;42.548;22.968;2024-01-27T04:20:19;17.90;;;9.55;;
10517;SDS011;5307;42.548;22.968;2024-01-27T04:22:47;21.73;;;11.07;;
10517;SDS011;5307;42.548;22.968;2024-01-27T04:25:15;23.98;;;11.80;;
10517;SDS011;5307;42.548;22.968;2024-01-27T04:27:42;29.65;;;16.02;;
10517;SDS011;5307;42.548;22.968;2024-01-27T04:30:10;20.23;;;10.98;;
10517;SDS011;5307;42.548;22.968;2024-01-27T04:32:37;23.83;;;10.98;;
10517;SDS011;5307;42.548;22.968;2024-01-27T04:35:04;14.95;;;7.38;;
10517;SDS011;5307;42.548;22.968;2024-01-27T04:37:34;15.27;;;7.97;;
10517;SDS011;5307;42.548;22.968;2024-01-27T04:40:01;14.75;;;7.15;;
10517;SDS011;5307;42.548;22.968;2024-01-27T04:42:30;14.63;;;7.43;;
10517;SDS011;5307;42.548;22.968;2024-01-27T04:44:58;18.90;;;8.07;;
10517;SDS011;5307;42.548;22.968;2024-01-27T04:47:24;11.80;;;6.90;;
10517;SDS011;5307;42.548;22.968;2024-01-27T04:49:51;20.83;;;9.70;;
10517;SDS011;5307;42.548;22.968;2024-01-27T04:52:18;20.27;;;10.35;;
10517;SDS011;5307;42.548;22.968;2024-01-27T04:54:45;15.15;;;7.63;;
10517;SDS011;5307;42.548;22.968;2024-01-27T04:57:11;24.90;;;8.50;;
10517;SDS011;5307;42.548;22.968;2024-01-27T04:59:39;39.65;;;18.70;;
10517;SDS011;5307;42.548;22.968;2024-01-27T05:02:06;32.15;;;13.20;;
10517;SDS011;5307;42.548;22.968;2024-01-27T05:04:33;27.13;;;13.50;;
10517;SDS011;5307;42.548;22.968;2024-01-27T05:06:59;31.30;;;13.63;;
10517;SDS011;5307;42.548;22.968;2024-01-27T05:09:26;24.70;;;12.70;;
10517;SDS011;5307;42.548;22.968;2024-01-27T05:11:53;29.05;;;14.07;;
10517;SDS011;5307;42.548;22.968;2024-01-27T05:14:20;32.83;;;14.43;;
10517;SDS011;5307;42.548;22.968;2024-01-27T05:16:48;48.00;;;20.48;;
10517;SDS011;5307;42.548;22.968;2024-01-27T05:19:15;37.45;;;17.30;;
10517;SDS011;5307;42.548;22.968;2024-01-27T05:21:43;29.90;;;15.70;;
10517;SDS011;5307;42.548;22.968;2024-01-27T05:24:09;35.65;;;17.67;;
10517;SDS011;5307;42.548;22.968;2024-01-27T05:26:36;40.80;;;18.50;;
10517;SDS011;5307;42.548;22.968;2024-01-27T05:29:03;29.65;;;14.38;;
10517;SDS011;5307;42.548;22.968;2024-01-27T05:31:30;24.67;;;12.63;;
10517;SDS011;5307;42.548;22.968;2024-01-27T05:33:58;29.13;;;13.30;;
10517;SDS011;5307;42.548;22.968;2024-01-27T05:36:24;33.22;;;16.95;;
10517;SDS011;5307;42.548;22.968;2024-01-27T05:38:51;38.75;;;18.63;;
10517;SDS011;5307;42.548;22.968;2024-01-27T05:41:18;55.40;;;23.33;;
10517;SDS011;5307;42.548;22.968;2024-01-27T05:43:45;48.90;;;18.98;;
10517;SDS011;5307;42.548;22.968;2024-01-27T05:46:11;43.28;;;18.75;;
10517;SDS011;5307;42.548;22.968;2024-01-27T05:48:38;27.33;;;13.50;;
10517;SDS011;5307;42.548;22.968;2024-01-27T05:51:06;29.60;;;13.80;;
10517;SDS011;5307;42.548;22.968;2024-01-27T05:53:34;53.47;;;23.52;;
10517;SDS011;5307;42.548;22.968;2024-01-27T05:56:01;28.92;;;14.50;;
10517;SDS011;5307;42.548;22.968;2024-01-27T05:58:28;20.02;;;11.73;;
10517;SDS011;5307;42.548;22.968;2024-01-27T06:00:55;26.70;;;12.10;;
10517;SDS011;5307;42.548;22.968;2024-01-27T06:03:22;24.15;;;11.82;;
10517;SDS011;5307;42.548;22.968;2024-01-27T06:05:48;24.80;;;11.80;;
10517;SDS011;5307;42.548;22.968;2024-01-27T06:08:17;38.63;;;18.83;;
10517;SDS011;5307;42.548;22.968;2024-01-27T06:10:45;41.03;;;20.20;;
10517;SDS011;5307;42.548;22.968;2024-01-27T06:13:11;48.33;;;22.40;;
10517;SDS011;5307;42.548;22.968;2024-01-27T06:15:38;37.40;;;17.73;;
10517;SDS011;5307;42.548;22.968;2024-01-27T06:18:05;33.55;;;15.40;;
10517;SDS011;5307;42.548;22.968;2024-01-27T06:20:32;34.97;;;17.50;;
10517;SDS011;5307;42.548;22.968;2024-01-27T06:22:59;41.88;;;21.02;;
10517;SDS011;5307;42.548;22.968;2024-01-27T06:25:27;30.13;;;15.55;;
10517;SDS011;5307;42.548;22.968;2024-01-27T06:27:54;32.95;;;15.25;;
10517;SDS011;5307;42.548;22.968;2024-01-27T06:30:20;31.88;;;16.48;;
10517;SDS011;5307;42.548;22.968;2024-01-27T06:32:47;51.42;;;25.13;;
10517;SDS011;5307;42.548;22.968;2024-01-27T06:35:14;56.95;;;27.15;;
10517;SDS011;5307;42.548;22.968;2024-01-27T06:37:41;50.45;;;24.13;;
10517;SDS011;5307;42.548;22.968;2024-01-27T06:40:08;45.90;;;22.70;;
10517;SDS011;5307;42.548;22.968;2024-01-27T06:42:36;44.38;;;21.85;;
10517;SDS011;5307;42.548;22.968;2024-01-27T06:45:03;36.72;;;19.80;;
10517;SDS011;5307;42.548;22.968;2024-01-27T06:47:31;42.33;;;23.52;;
10517;SDS011;5307;42.548;22.968;2024-01-27T06:49:57;47.45;;;23.58;;
10517;SDS011;5307;42.548;22.968;2024-01-27T06:52:24;45.65;;;24.48;;
10517;SDS011;5307;42.548;22.968;2024-01-27T06:54:51;47.35;;;25.15;;
10517;SDS011;5307;42.548;22.968;2024-01-27T06:57:18;54.05;;;26.60;;
10517;SDS011;5307;42.548;22.968;2024-01-27T06:59:48;55.63;;;26.83;;
10517;SDS011;5307;42.548;22.968;2024-01-27T07:02:18;56.70;;;27.50;;
10517;SDS011;5307;42.548;22.968;2024-01-27T07:04:45;72.18;;;33.50;;
10517;SDS011;5307;42.548;22.968;2024-01-27T07:07:12;70.90;;;30.70;;
10517;SDS011;5307;42.548;22.968;2024-01-27T07:09:39;61.67;;;31.88;;
10517;SDS011;5307;42.548;22.968;2024-01-27T07:12:06;72.75;;;34.70;;
10517;SDS011;5307;42.548;22.968;2024-01-27T07:14:34;69.80;;;33.40;;
10517;SDS011;5307;42.548;22.968;2024-01-27T07:17:02;58.63;;;32.50;;
10517;SDS011;5307;42.548;22.968;2024-01-27T07:19:30;52.78;;;23.63;;
10517;SDS011;5307;42.548;22.968;2024-01-27T07:21:56;40.00;;;19.00;;
10517;SDS011;5307;42.548;22.968;2024-01-27T07:24:23;45.97;;;21.52;;
10517;SDS011;5307;42.548;22.968;2024-01-27T07:26:51;37.67;;;19.35;;
10517;SDS011;5307;42.548;22.968;2024-01-27T07:29:18;64.10;;;22.65;;
10517;SDS011;5307;42.548;22.968;2024-01-27T07:31:45;31.00;;;16.27;;
10517;SDS011;5307;42.548;22.968;2024-01-27T07:34:13;28.73;;;15.55;;
10517;SDS011;5307;42.548;22.968;2024-01-27T07:36:40;28.27;;;14.70;;
10517;SDS011;5307;42.548;22.968;2024-01-27T07:39:07;36.55;;;16.95;;
10517;SDS011;5307;42.548;22.968;2024-01-27T07:41:34;27.13;;;13.88;;
10517;SDS011;5307;42.548;22.968;2024-01-27T07:44:06;18.73;;;7.65;;
10517;SDS011;5307;42.548;22.968;2024-01-27T07:46:34;4.40;;;2.53;;
10517;SDS011;5307;42.548;22.968;2024-01-27T07:49:01;9.15;;;3.35;;
10517;SDS011;5307;42.548;22.968;2024-01-27T07:51:30;11.40;;;4.15;;
10517;SDS011;5307;42.548;22.968;2024-01-27T07:53:57;8.07;;;4.05;;
10517;SDS011;5307;42.548;22.968;2024-01-27T07:56:26;13.63;;;5.90;;
10517;SDS011;5307;42.548;22.968;2024-01-27T07:58:53;14.00;;;5.38;;
10517;SDS011;5307;42.548;22.968;2024-01-27T08:01:20;10.05;;;5.20;;
10517;SDS011;5307;42.548;22.968;2024-01-27T08:03:47;17.95;;;6.35;;
10517;SDS011;5307;42.548;22.968;2024-01-27T08:06:15;16.55;;;6.65;;
10517;SDS011;5307;42.548;22.968;2024-01-27T08:08:46;18.15;;;7.38;;
10517;SDS011;5307;42.548;22.968;2024-01-27T08:11:13;4.78;;;2.67;;
10517;SDS011;5307;42.548;22.968;2024-01-27T08:13:41;7.25;;;3.63;;
10517;SDS011;5307;42.548;22.968;2024-01-27T08:16:08;17.05;;;8.60;;
10517;SDS011;5307;42.548;22.968;2024-01-27T08:18:38;13.45;;;6.30;;
10517;SDS011;5307;42.548;22.968;2024-01-27T08:21:07;6.97;;;3.88;;
10517;SDS011;5307;42.548;22.968;2024-01-27T08:23:34;8.18;;;4.95;;
10517;SDS011;5307;42.548;22.968;2024-01-27T08:26:02;7.43;;;4.30;;
10517;SDS011;5307;42.548;22.968;2024-01-27T08:28:29;5.97;;;3.40;;
10517;SDS011;5307;42.548;22.968;2024-01-27T08:30:57;5.53;;;3.30;;
10517;SDS011;5307;42.548;22.968;2024-01-27T08:33:24;7.05;;;3.70;;
10517;SDS011;5307;42.548;22.968;2024-01-27T08:35:52;15.80;;;8.10;;
10517;SDS011;5307;42.548;22.968;2024-01-27T08:38:18;16.08;;;5.97;;
10517;SDS011;5307;42.548;22.968;2024-01-27T08:40:45;10.30;;;4.85;;
10517;SDS011;5307;42.548;22.968;2024-01-27T08:43:13;3.17;;;2.15;;
10517;SDS011;5307;42.548;22.968;2024-01-27T08:45:42;6.28;;;3.75;;
10517;SDS011;5307;42.548;22.968;2024-01-27T08:48:09;8.55;;;3.95;;
10517;SDS011;5307;42.548;22.968;2024-01-27T08:50:36;7.55;;;4.50;;
10517;SDS011;5307;42.548;22.968;2024-01-27T08:53:03;8.38;;;4.65;;
10517;SDS011;5307;42.548;22.968;2024-01-27T08:55:30;7.22;;;3.95;;
10517;SDS011;5307;42.548;22.968;2024-01-27T08:57:57;5.40;;;3.47;;
10517;SDS011;5307;42.548;22.968;2024-01-27T09:00:25;11.65;;;7.03;;
10517;SDS011;5307;42.548;22.968;2024-01-27T09:02:52;5.45;;;3.17;;
10517;SDS011;5307;42.548;22.968;2024-01-27T09:05:19;3.55;;;3.10;;
10517;SDS011;5307;42.548;22.968;2024-01-27T09:07:46;8.43;;;4.05;;
10517;SDS011;5307;42.548;22.968;2024-01-27T09:10:12;6.80;;;4.13;;
10517;SDS011;5307;42.548;22.968;2024-01-27T09:12:40;5.18;;;3.30;;
10517;SDS011;5307;42.548;22.968;2024-01-27T09:15:08;9.63;;;3.90;;
10517;SDS011;5307;42.548;22.968;2024-01-27T09:17:36;7.07;;;2.92;;
10517;SDS011;5307;42.548;22.968;2024-01-27T09:20:03;8.07;;;4.82;;
10517;SDS011;5307;42.548;22.968;2024-01-27T09:22:31;20.33;;;8.55;;
10517;SDS011;5307;42.548;22.968;2024-01-27T09:24:58;15.50;;;7.75;;
10517;SDS011;5307;42.548;22.968;2024-01-27T09:27:24;8.45;;;4.15;;
10517;SDS011;5307;42.548;22.968;2024-01-27T09:29:51;8.27;;;4.80;;
10517;SDS011;5307;42.548;22.968;2024-01-27T09:32:18;10.27;;;5.15;;
10517;SDS011;5307;42.548;22.968;2024-01-27T09:34:46;17.10;;;7.47;;
10517;SDS011;5307;42.548;22.968;2024-01-27T09:37:13;15.93;;;2.97;;
10517;SDS011;5307;42.548;22.968;2024-01-27T09:39:39;7.18;;;3.38;;
10517;SDS011;5307;42.548;22.968;2024-01-27T09:42:07;4.82;;;3.60;;
10517;SDS011;5307;42.548;22.968;2024-01-27T09:44:35;4.10;;;2.88;;
10517;SDS011;5307;42.548;22.968;2024-01-27T09:47:03;12.40;;;6.72;;
10517;SDS011;5307;42.548;22.968;2024-01-27T09:49:31;7.03;;;3.38;;
10517;SDS011;5307;42.548;22.968;2024-01-27T09:51:59;4.60;;;3.00;;
10517;SDS011;5307;42.548;22.968;2024-01-27T09:54:26;10.73;;;3.67;;
10517;SDS011;5307;42.548;22.968;2024-01-27T09:56:53;5.53;;;3.38;;
10517;SDS011;5307;42.548;22.968;2024-01-27T09:59:21;6.03;;;2.92;;
10517;SDS011;5307;42.548;22.968;2024-01-27T10:01:49;3.65;;;2.90;;
10517;SDS011;5307;42.548;22.968;2024-01-27T10:04:16;5.90;;;3.38;;
10517;SDS011;5307;42.548;22.968;2024-01-27T10:06:46;3.28;;;2.97;;
10517;SDS011;5307;42.548;22.968;2024-01-27T10:09:16;6.40;;;3.70;;
10517;SDS011;5307;42.548;22.968;2024-01-27T10:11:46;3.42;;;2.70;;
10517;SDS011;5307;42.548;22.968;2024-01-27T10:14:13;4.38;;;3.50;;
10517;SDS011;5307;42.548;22.968;2024-01-27T10:16:41;2.85;;;2.17;;
10517;SDS011;5307;42.548;22.968;2024-01-27T10:19:11;4.18;;;3.13;;
10517;SDS011;5307;42.548;22.968;2024-01-27T10:21:40;3.33;;;2.50;;
10517;SDS011;5307;42.548;22.968;2024-01-27T10:24:07;16.08;;;6.82;;
10517;SDS011;5307;42.548;22.968;2024-01-27T10:26:35;7.72;;;3.83;;
10517;SDS011;5307;42.548;22.968;2024-01-27T10:29:02;6.78;;;3.90;;
10517;SDS011;5307;42.548;22.968;2024-01-27T10:31:29;3.50;;;3.00;;
10517;SDS011;5307;42.548;22.968;2024-01-27T10:33:57;8.00;;;4.63;;
10517;SDS011;5307;42.548;22.968;2024-01-27T10:36:26;5.65;;;3.30;;
10517;SDS011;5307;42.548;22.968;2024-01-27T10:39:13;4.57;;;3.30;;
10517;SDS011;5307;42.548;22.968;2024-01-27T10:41:42;1.23;;;1.02;;
10517;SDS011;5307;42.548;22.968;2024-01-27T10:44:13;4.03;;;2.83;;
10517;SDS011;5307;42.548;22.968;2024-01-27T10:46:41;5.82;;;2.55;;
10517;SDS011;5307;42.548;22.968;2024-01-27T10:49:10;5.93;;;3.58;;
10517;SDS011;5307;42.548;22.968;2024-01-27T10:51:40;10.95;;;3.67;;
10517;SDS011;5307;42.548;22.968;2024-01-27T10:54:13;8.65;;;4.28;;
10517;SDS011;5307;42.548;22.968;2024-01-27T10:56:43;4.32;;;2.80;;
10517;SDS011;5307;42.548;22.968;2024-01-27T10:59:12;12.40;;;4.13;;
10517;SDS011;5307;42.548;22.968;2024-01-27T11:01:41;4.60;;;3.38;;
10517;SDS011;5307;42.548;22.968;2024-01-27T11:04:08;6.68;;;4.53;;
10517;SDS011;5307;42.548;22.968;2024-01-27T11:06:38;5.95;;;4.00;;
10517;SDS011;5307;42.548;22.968;2024-01-27T11:09:07;3.58;;;2.95;;
10517;SDS011;5307;42.548;22.968;2024-01-27T11:11:36;4.05;;;3.10;;
10517;SDS011;5307;42.548;22.968;2024-01-27T11:14:06;9.48;;;4.75;;
10517;SDS011;5307;42.548;22.968;2024-01-27T11:16:34;7.22;;;4.68;;
10517;SDS011;5307;42.548;22.968;2024-01-27T11:19:03;3.03;;;2.72;;
10517;SDS011;5307;42.548;22.968;2024-01-27T11:21:31;4.40;;;3.78;;
10517;SDS011;5307;42.548;22.968;2024-01-27T11:23:57;4.45;;;3.67;;
10517;SDS011;5307;42.548;22.968;2024-01-27T11:26:24;5.70;;;3.42;;
10517;SDS011;5307;42.548;22.968;2024-01-27T11:28:51;6.05;;;3.63;;
10517;SDS011;5307;42.548;22.968;2024-01-27T11:31:20;4.18;;;2.78;;
10517;SDS011;5307;42.548;22.968;2024-01-27T11:33:47;2.85;;;1.95;;
10517;SDS011;5307;42.548;22.968;2024-01-27T11:36:20;3.45;;;2.63;;
10517;SDS011;5307;42.548;22.968;2024-01-27T11:38:48;2.55;;;1.90;;
10517;SDS011;5307;42.548;22.968;2024-01-27T11:41:25;4.10;;;3.55;;
10517;SDS011;5307;42.548;22.968;2024-01-27T11:43:52;8.75;;;5.47;;
10517;SDS011;5307;42.548;22.968;2024-01-27T11:46:21;2.70;;;2.22;;
10517;SDS011;5307;42.548;22.968;2024-01-27T11:48:48;4.47;;;3.42;;
10517;SDS011;5307;42.548;22.968;2024-01-27T11:51:17;2.78;;;2.58;;
10517;SDS011;5307;42.548;22.968;2024-01-27T11:53:44;2.90;;;2.25;;
10517;SDS011;5307;42.548;22.968;2024-01-27T11:56:11;2.42;;;2.22;;
10517;SDS011;5307;42.548;22.968;2024-01-27T11:58:45;3.30;;;2.00;;
10517;SDS011;5307;42.548;22.968;2024-01-27T12:01:12;3.47;;;2.00;;
10517;SDS011;5307;42.548;22.968;2024-01-27T12:03:41;2.22;;;1.73;;
10517;SDS011;5307;42.548;22.968;2024-01-27T12:06:08;3.42;;;2.22;;
10517;SDS011;5307;42.548;22.968;2024-01-27T12:08:35;5.65;;;2.95;;
10517;SDS011;5307;42.548;22.968;2024-01-27T12:11:02;7.13;;;3.65;;
10517;SDS011;5307;42.548;22.968;2024-01-27T12:13:29;7.47;;;4.78;;
10517;SDS011;5307;42.548;22.968;2024-01-27T12:15:56;5.63;;;3.13;;
10517;SDS011;5307;42.548;22.968;2024-01-27T12:18:23;10.55;;;4.20;;
10517;SDS011;5307;42.548;22.968;2024-01-27T12:20:55;5.68;;;3.30;;
10517;SDS011;5307;42.548;22.968;2024-01-27T12:23:22;9.25;;;4.97;;
10517;SDS011;5307;42.548;22.968;2024-01-27T12:25:52;12.48;;;3.75;;
10517;SDS011;5307;42.548;22.968;2024-01-27T12:28:19;6.18;;;4.18;;
10517;SDS011;5307;42.548;22.968;2024-01-27T12:30:48;3.92;;;3.03;;
10517;SDS011;5307;42.548;22.968;2024-01-27T12:33:15;8.93;;;3.33;;
10517;SDS011;5307;42.548;22.968;2024-01-27T12:35:45;5.25;;;3.67;;
10517;SDS011;5307;42.548;22.968;2024-01-27T12:38:13;6.68;;;4.13;;
10517;SDS011;5307;42.548;22.968;2024-01-27T12:40:40;5.55;;;3.85;;
10517;SDS011;5307;42.548;22.968;2024-01-27T12:43:07;9.20;;;4.15;;
10517;SDS011;5307;42.548;22.968;2024-01-27T12:45:34;12.63;;;5.35;;
10517;SDS011;5307;42.548;22.968;2024-01-27T12:48:01;6.10;;;4.40;;
10517;SDS011;5307;42.548;22.968;2024-01-27T12:50:30;36.38;;;15.48;;
10517;SDS011;5307;42.548;22.968;2024-01-27T12:52:57;19.08;;;8.43;;
10517;SDS011;5307;42.548;22.968;2024-01-27T12:55:25;8.82;;;4.30;;
10517;SDS011;5307;42.548;22.968;2024-01-27T12:57:52;4.97;;;3.17;;
10517;SDS011;5307;42.548;22.968;2024-01-27T13:00:19;6.97;;;4.20;;
10517;SDS011;5307;42.548;22.968;2024-01-27T13:02:45;6.05;;;3.78;;
10517;SDS011;5307;42.548;22.968;2024-01-27T13:05:12;5.68;;;3.40;;
10517;SDS011;5307;42.548;22.968;2024-01-27T13:07:38;7.47;;;4.60;;
10517;SDS011;5307;42.548;22.968;2024-01-27T13:10:06;14.15;;;9.15;;
10517;SDS011;5307;42.548;22.968;2024-01-27T13:12:34;8.65;;;4.55;;
10517;SDS011;5307;42.548;22.968;2024-01-27T13:15:01;6.68;;;3.65;;
10517;SDS011;5307;42.548;22.968;2024-01-27T13:17:28;9.15;;;4.75;;
10517;SDS011;5307;42.548;22.968;2024-01-27T13:19:55;3.38;;;2.55;;
10517;SDS011;5307;42.548;22.968;2024-01-27T13:22:21;3.78;;;2.13;;
10517;SDS011;5307;42.548;22.968;2024-01-27T13:24:50;15.90;;;5.65;;
10517;SDS011;5307;42.548;22.968;2024-01-27T13:27:16;4.53;;;3.25;;
10517;SDS011;5307;42.548;22.968;2024-01-27T13:29:44;2.60;;;2.03;;
10517;SDS011;5307;42.548;22.968;2024-01-27T13:32:11;9.68;;;4.95;;
10517;SDS011;5307;42.548;22.968;2024-01-27T13:34:38;13.65;;;7.85;;
10517;SDS011;5307;42.548;22.968;2024-01-27T13:37:05;12.25;;;5.78;;
10517;SDS011;5307;42.548;22.968;2024-01-27T13:39:31;4.20;;;2.60;;
10517;SDS011;5307;42.548;22.968;2024-01-27T13:41:58;6.75;;;3.72;;
10517;SDS011;5307;42.548;22.968;2024-01-27T13:44:25;5.78;;;3.70;;
10517;SDS011;5307;42.548;22.968;2024-01-27T13:46:53;4.53;;;2.58;;
10517;SDS011;5307;42.548;22.968;2024-01-27T13:49:25;5.43;;;3.40;;
10517;SDS011;5307;42.548;22.968;2024-01-27T13:51:52;3.65;;;1.98;;
10517;SDS011;5307;42.548;22.968;2024-01-27T13:54:18;7.15;;;3.90;;
10517;SDS011;5307;42.548;22.968;2024-01-27T13:56:45;6.93;;;3.45;;
10517;SDS011;5307;42.548;22.968;2024-01-27T13:59:12;10.35;;;3.58;;
10517;SDS011;5307;42.548;22.968;2024-01-27T14:01:39;3.83;;;2.75;;
10517;SDS011;5307;42.548;22.968;2024-01-27T14:04:07;6.25;;;3.33;;
10517;SDS011;5307;42.548;22.968;2024-01-27T14:06:33;8.10;;;3.00;;
10517;SDS011;5307;42.548;22.968;2024-01-27T14:09:01;6.38;;;3.28;;
10517;SDS011;5307;42.548;22.968;2024-01-27T14:11:28;6.28;;;3.47;;
10517;SDS011;5307;42.548;22.968;2024-01-27T14:13:55;6.85;;;3.30;;
10517;SDS011;5307;42.548;22.968;2024-01-27T14:16:21;4.63;;;3.08;;
10517;SDS011;5307;42.548;22.968;2024-01-27T14:43:01;10.68;;;4.85;;
10517;SDS011;5307;42.548;22.968;2024-01-27T14:49:20;10.80;;;3.90;;
10517;SDS011;5307;42.548;22.968;2024-01-27T14:51:47;9.30;;;3.95;;
10517;SDS011;5307;42.548;22.968;2024-01-27T14:54:14;6.80;;;4.25;;
10517;SDS011;5307;42.548;22.968;2024-01-27T14:56:40;3.40;;;2.08;;
10517;SDS011;5307;42.548;22.968;2024-01-27T15:02:07;9.73;;;5.68;;
10517;SDS011;5307;42.548;22.968;2024-01-27T15:04:34;14.50;;;7.00;;
10517;SDS011;5307;42.548;22.968;2024-01-27T15:07:01;8.60;;;4.03;;
10517;SDS011;5307;42.548;22.968;2024-01-27T15:09:28;6.45;;;3.90;;